createdAt,value
2018-11-02T00:01:35.989Z,98453.48
2018-11-02T00:04:04.423Z,98455.70
2018-11-02T00:06:33.965Z,98454.40
2018-11-02T00:09:02.403Z,98463.95
2018-11-02T00:11:30.696Z,98468.33
2018-11-02T00:13:59.052Z,98469.86
2018-11-02T00:16:27.489Z,98477.31
2018-11-02T00:18:55.823Z,98474.17
2018-11-02T00:21:24.189Z,98476.95
2018-11-02T00:23:52.693Z,98481.58
2018-11-02T00:26:20.987Z,98476.71
2018-11-02T00:28:49.353Z,98472.70
2018-11-02T00:31:17.684Z,98469.91
2018-11-02T00:33:45.994Z,98473.91
2018-11-02T00:36:14.316Z,98473.16
2018-11-02T00:38:42.708Z,98473.50
2018-11-02T00:41:11.059Z,98479.08
2018-11-02T00:43:39.644Z,98482.58
2018-11-02T00:46:08.419Z,98482.17
2018-11-02T00:48:36.727Z,98484.15
2018-11-02T00:51:05.357Z,98478.18
2018-11-02T00:53:33.683Z,98478.38
2018-11-02T00:56:02.039Z,98484.02
2018-11-02T00:58:30.395Z,98477.80
2018-11-02T01:00:58.765Z,98476.98
2018-11-02T01:03:27.149Z,98477.80
2018-11-02T01:05:55.508Z,98470.72
2018-11-02T01:08:23.933Z,98462.98
2018-11-02T01:10:52.270Z,98465.30
2018-11-02T01:13:20.615Z,98471.91
2018-11-02T01:15:49.036Z,98463.16
2018-11-02T01:18:17.359Z,98465.81
2018-11-02T01:20:45.736Z,98462.02
2018-11-02T01:23:14.157Z,98459.41
2018-11-02T01:25:42.499Z,98466.03
2018-11-02T01:28:10.914Z,98465.81
2018-11-02T01:30:39.266Z,98462.75
2018-11-02T01:33:07.707Z,98461.63
2018-11-02T01:35:36.200Z,98470.49
2018-11-02T01:38:04.741Z,98466.72
2018-11-02T01:40:33.134Z,98471.88
2018-11-02T01:43:01.548Z,98476.66
2018-11-02T01:45:29.867Z,98480.20
2018-11-02T01:47:58.194Z,98479.91
2018-11-02T01:50:26.570Z,98490.70
2018-11-02T01:52:54.881Z,98492.75
2018-11-02T01:55:23.219Z,98490.55
2018-11-02T01:57:51.558Z,98491.56
2018-11-02T02:00:19.932Z,98493.94
2018-11-02T02:02:48.244Z,98487.33
2018-11-02T02:05:16.634Z,98477.92
2018-11-02T02:07:45.071Z,98481.63
2018-11-02T02:10:13.468Z,98483.71
2018-11-02T02:12:41.756Z,98481.48
2018-11-02T02:15:10.807Z,98487.30
2018-11-02T02:17:39.317Z,98489.22
2018-11-02T02:20:08.399Z,98491.16
2018-11-02T02:22:36.702Z,98495.11
2018-11-02T02:25:05.621Z,98484.98
2018-11-02T02:27:36.765Z,98491.93
2018-11-02T02:30:07.361Z,98495.59
2018-11-02T02:32:35.802Z,98487.78
2018-11-02T02:35:04.466Z,98494.27
2018-11-02T02:37:32.798Z,98494.81
2018-11-02T02:40:01.086Z,98490.72
2018-11-02T02:42:29.420Z,98496.18
2018-11-02T02:44:57.742Z,98495.71
2018-11-02T02:47:26.221Z,98504.49
2018-11-02T02:49:54.518Z,98505.59
2018-11-02T02:52:22.800Z,98513.15
2018-11-02T02:54:51.223Z,98505.65
2018-11-02T02:57:19.572Z,98504.97
2018-11-02T02:59:47.917Z,98506.48
2018-11-02T03:02:16.334Z,98505.34
2018-11-02T03:04:44.843Z,98518.90
2018-11-02T03:07:13.163Z,98529.37
2018-11-02T03:09:41.560Z,98529.56
2018-11-02T03:12:09.882Z,98529.42
2018-11-02T03:14:38.281Z,98532.08
2018-11-02T03:17:06.641Z,98533.06
2018-11-02T03:19:34.986Z,98541.88
2018-11-02T03:22:03.279Z,98548.03
2018-11-02T03:24:31.668Z,98545.04
2018-11-02T03:26:59.970Z,98536.73
2018-11-02T03:29:28.269Z,98530.80
2018-11-02T03:31:56.648Z,98528.66
2018-11-02T03:34:24.994Z,98529.65
2018-11-02T03:36:53.310Z,98534.91
2018-11-02T03:39:21.698Z,98537.63
2018-11-02T03:41:50.074Z,98539.46
2018-11-02T03:44:18.334Z,98533.84
2018-11-02T03:46:46.779Z,98530.52
2018-11-02T03:49:15.204Z,98538.66
2018-11-02T03:51:43.540Z,98532.66
2018-11-02T03:54:11.943Z,98551.03
2018-11-02T03:56:40.351Z,98567.14
2018-11-02T03:59:08.650Z,98575.13
2018-11-02T04:01:37.046Z,98589.42
2018-11-02T04:04:05.704Z,98599.98
2018-11-02T04:06:33.991Z,98596.59
2018-11-02T04:09:02.471Z,98602.99
2018-11-02T04:11:30.787Z,98601.86
2018-11-02T04:13:59.227Z,98605.22
2018-11-02T04:16:27.659Z,98601.41
2018-11-02T04:18:56.022Z,98601.36
2018-11-02T04:21:24.329Z,98610.64
2018-11-02T04:23:52.641Z,98615.29
2018-11-02T04:26:21.057Z,98619.31
2018-11-02T04:28:49.371Z,98622.85
2018-11-02T04:31:17.721Z,98609.36
2018-11-02T04:33:46.040Z,98610.89
2018-11-02T04:36:14.337Z,98610.49
2018-11-02T04:38:42.633Z,98620.39
2018-11-02T04:41:10.954Z,98620.27
2018-11-02T04:43:39.282Z,98617.61
2018-11-02T04:46:07.592Z,98624.52
2018-11-02T04:48:35.873Z,98618.84
2018-11-02T04:51:04.290Z,98621.30
2018-11-02T04:53:32.641Z,98623.78
2018-11-02T04:56:04.059Z,98622.14
2018-11-02T04:58:32.422Z,98627.48
2018-11-02T05:01:00.694Z,98628.27
2018-11-02T05:03:29.065Z,98629.21
2018-11-02T05:05:57.375Z,98637.08
2018-11-02T05:08:25.730Z,98646.38
2018-11-02T05:10:54.058Z,98645.30
2018-11-02T05:13:22.337Z,98648.70
2018-11-02T05:15:50.661Z,98650.59
2018-11-02T05:18:18.948Z,98644.06
2018-11-02T05:20:47.276Z,98644.39
2018-11-02T05:23:15.639Z,98659.02
2018-11-02T05:25:43.954Z,98659.29
2018-11-02T05:28:12.277Z,98663.47
2018-11-02T05:30:40.676Z,98656.39
2018-11-02T05:33:09.155Z,98655.23
2018-11-02T05:35:37.488Z,98647.78
2018-11-02T05:38:05.792Z,98655.69
2018-11-02T05:40:34.080Z,98673.94
2018-11-02T05:43:02.415Z,98661.49
2018-11-02T05:45:30.759Z,98661.41
2018-11-02T05:47:59.294Z,98663.27
2018-11-02T05:50:27.647Z,98658.11
2018-11-02T05:52:55.917Z,98660.73
2018-11-02T05:55:24.253Z,98660.62
2018-11-02T05:57:52.607Z,98677.66
2018-11-02T06:00:20.992Z,98683.72
2018-11-02T06:02:49.310Z,98672.86
2018-11-02T06:05:17.662Z,98684.54
2018-11-02T06:07:46.134Z,98685.77
2018-11-02T06:10:14.356Z,98688.85
2018-11-02T06:12:42.873Z,98704.56
2018-11-02T06:15:11.281Z,98706.14
2018-11-02T06:17:39.629Z,98708.90
2018-11-02T06:20:08.539Z,98709.24
2018-11-02T06:22:36.889Z,98721.00
2018-11-02T06:25:05.630Z,98718.09
2018-11-02T06:27:34.066Z,98727.47
2018-11-02T06:30:02.485Z,98725.23
2018-11-02T06:32:30.868Z,98730.74
2018-11-02T06:34:59.132Z,98745.72
2018-11-02T06:37:27.585Z,98749.83
2018-11-02T06:39:55.945Z,98743.41
2018-11-02T06:42:24.438Z,98742.87
2018-11-02T06:44:52.882Z,98756.80
2018-11-02T06:47:21.114Z,98754.42
2018-11-02T06:49:49.450Z,98756.19
2018-11-02T06:52:17.804Z,98769.15
2018-11-02T06:54:46.151Z,98771.27
2018-11-02T06:57:14.506Z,98778.84
2018-11-02T06:59:42.993Z,98777.62
2018-11-02T07:02:11.180Z,98780.91
2018-11-02T07:04:39.793Z,98786.41
2018-11-02T07:07:08.133Z,98788.20
2018-11-02T07:09:36.417Z,98782.61
2018-11-02T07:12:05.268Z,98785.47
2018-11-02T07:14:33.561Z,98783.30
2018-11-02T07:17:01.961Z,98784.52
2018-11-02T07:19:30.315Z,98780.39
2018-11-02T07:21:58.927Z,98788.97
2018-11-02T07:24:27.388Z,98795.80
2018-11-02T07:26:55.931Z,98802.16
2018-11-02T07:29:24.983Z,98803.20
2018-11-02T07:31:55.245Z,98807.88
2018-11-02T07:34:23.941Z,98798.93
2018-11-02T07:36:52.760Z,98810.61
2018-11-02T07:39:21.177Z,98816.20
2018-11-02T07:41:50.555Z,98809.23
2018-11-02T07:44:18.880Z,98820.19
2018-11-02T07:46:47.258Z,98823.38
2018-11-02T07:49:19.131Z,98825.92
2018-11-02T07:51:47.505Z,98823.02
2018-11-02T07:54:15.889Z,98822.83
2018-11-02T07:56:44.344Z,98838.24
2018-11-02T07:59:13.027Z,98838.92
2018-11-02T08:01:42.247Z,98837.33
2018-11-02T08:04:10.891Z,98835.59
2018-11-02T08:06:39.283Z,98840.19
2018-11-02T08:09:10.281Z,98839.27
2018-11-02T08:11:38.804Z,98842.89
2018-11-02T08:14:07.314Z,98854.83
2018-11-02T08:16:35.817Z,98852.13
2018-11-02T08:19:04.226Z,98858.49
2018-11-02T08:21:32.499Z,98863.73
2018-11-02T08:24:00.869Z,98854.73
2018-11-02T08:26:29.266Z,98864.86
2018-11-02T08:28:57.629Z,98861.73
2018-11-02T08:31:26.114Z,98858.00
2018-11-02T08:33:54.609Z,98852.81
2018-11-02T08:36:22.957Z,98855.70
2018-11-02T08:38:51.312Z,98856.40
2018-11-02T08:41:19.713Z,98851.80
2018-11-02T08:43:48.274Z,98853.78
2018-11-02T08:46:16.787Z,98852.48
2018-11-02T08:48:45.173Z,98851.92
2018-11-02T08:51:13.481Z,98864.38
2018-11-02T08:53:41.810Z,98871.03
2018-11-02T08:56:10.221Z,98870.48
2018-11-02T08:58:38.690Z,98870.07
2018-11-02T09:01:06.914Z,98860.30
2018-11-02T09:03:35.230Z,98866.66
2018-11-02T09:06:03.560Z,98861.41
2018-11-02T09:08:31.923Z,98869.67
2018-11-02T09:11:00.284Z,98872.19
2018-11-02T09:13:28.765Z,98862.10
2018-11-02T09:15:57.113Z,98865.03
2018-11-02T09:18:25.590Z,98860.66
2018-11-02T09:20:54.136Z,98860.84
2018-11-02T09:23:22.864Z,98854.71
2018-11-02T09:25:51.232Z,98852.05
2018-11-02T09:28:19.723Z,98851.87
2018-11-02T09:30:48.346Z,98849.28
2018-11-02T09:33:16.815Z,98850.53
2018-11-02T09:35:45.173Z,98852.38
2018-11-02T09:38:13.508Z,98849.82
2018-11-02T09:40:41.802Z,98855.13
2018-11-02T09:43:10.195Z,98860.73
2018-11-02T09:45:38.517Z,98861.69
2018-11-02T09:48:07.060Z,98863.70
2018-11-02T09:50:35.417Z,98864.36
2018-11-02T09:53:03.859Z,98864.85
2018-11-02T09:55:32.188Z,98881.37
2018-11-02T09:58:00.492Z,98883.39
2018-11-02T10:00:28.855Z,98881.16
2018-11-02T10:02:57.269Z,98880.95
2018-11-02T10:05:25.634Z,98880.22
2018-11-02T10:07:53.950Z,98885.11
2018-11-02T10:10:22.301Z,98895.03
2018-11-02T10:12:50.609Z,98889.33
2018-11-02T10:15:18.941Z,98884.98
2018-11-02T10:17:47.261Z,98882.67
2018-11-02T10:20:15.619Z,98877.23
2018-11-02T10:22:44.146Z,98879.84
2018-11-02T10:25:12.613Z,98872.15
2018-11-02T10:27:42.221Z,98860.50
2018-11-02T10:30:12.250Z,98851.77
2018-11-02T10:32:41.654Z,98844.39
2018-11-02T10:35:10.156Z,98847.22
2018-11-02T10:37:38.866Z,98845.93
2018-11-02T10:40:14.390Z,98843.05
2018-11-02T10:42:43.922Z,98842.31
2018-11-02T10:45:12.290Z,98844.92
2018-11-02T10:47:41.105Z,98852.11
2018-11-02T10:50:09.499Z,98850.69
2018-11-02T10:52:37.878Z,98848.66
2018-11-02T10:55:06.284Z,98850.08
2018-11-02T10:57:34.593Z,98848.68
2018-11-02T11:00:03.020Z,98853.12
2018-11-02T11:02:37.458Z,98855.33
2018-11-02T11:05:07.279Z,98852.92
2018-11-02T11:07:35.603Z,98848.54
2018-11-02T11:10:04.573Z,98850.89
2018-11-02T11:12:33.080Z,98859.01
2018-11-02T11:15:01.378Z,98862.35
2018-11-02T11:17:29.728Z,98860.92
2018-11-02T11:19:58.178Z,98857.23
2018-11-02T11:22:26.507Z,98857.67
2018-11-02T11:24:54.870Z,98852.67
2018-11-02T11:27:23.360Z,98857.28
2018-11-02T11:29:51.770Z,98854.36
2018-11-02T11:32:20.449Z,98862.47
2018-11-02T11:34:50.771Z,98856.54
2018-11-02T11:37:19.062Z,98860.31
2018-11-02T11:39:47.511Z,98858.08
2018-11-02T11:42:15.835Z,98858.25
2018-11-02T11:44:44.281Z,98852.14
2018-11-02T11:47:12.629Z,98848.00
2018-11-02T11:49:41.006Z,98842.63
2018-11-02T11:52:09.299Z,98844.99
2018-11-02T11:54:37.921Z,98852.45
2018-11-02T11:57:06.911Z,98860.91
2018-11-02T11:59:35.243Z,98879.10
2018-11-02T12:02:03.605Z,98883.28
2018-11-02T12:04:32.021Z,98876.53
2018-11-02T12:07:00.273Z,98878.59
2018-11-02T12:09:28.627Z,98871.42
2018-11-02T12:11:56.936Z,98870.63
2018-11-02T12:14:25.282Z,98870.80
2018-11-02T12:16:53.773Z,98868.02
2018-11-02T12:19:22.083Z,98871.17
2018-11-02T12:21:50.745Z,98872.61
2018-11-02T12:24:19.193Z,98875.75
2018-11-02T12:26:47.742Z,98872.09
2018-11-02T12:29:16.081Z,98876.26
2018-11-02T12:31:44.430Z,98872.27
2018-11-02T12:34:13.605Z,98882.94
2018-11-02T12:36:41.925Z,98882.84
2018-11-02T12:39:10.406Z,98878.94
2018-11-02T12:41:39.083Z,98872.37
2018-11-02T12:44:27.627Z,98874.81
2018-11-02T12:46:57.503Z,98878.77
2018-11-02T12:49:26.257Z,98876.53
2018-11-02T12:51:54.225Z,98878.52
2018-11-02T12:54:22.663Z,98871.33
2018-11-02T12:56:50.963Z,98870.02
2018-11-02T12:59:19.257Z,98877.30
2018-11-02T13:01:47.594Z,98879.79
2018-11-02T13:04:15.928Z,98872.77
2018-11-02T13:06:44.563Z,98866.06
2018-11-02T13:09:12.902Z,98866.94
2018-11-02T13:11:41.247Z,98879.02
2018-11-02T13:14:09.684Z,98872.96
2018-11-02T13:16:38.062Z,98875.07
2018-11-02T13:19:06.680Z,98876.95
2018-11-02T13:21:35.022Z,98868.94
2018-11-02T13:24:03.333Z,98866.53
2018-11-02T13:26:31.690Z,98868.33
2018-11-02T13:29:00.012Z,98870.93
2018-11-02T13:31:28.523Z,98874.24
2018-11-02T13:33:56.669Z,98883.73
2018-11-02T13:36:25.047Z,98887.84
2018-11-02T13:38:53.354Z,98899.94
2018-11-02T13:41:21.686Z,98906.27
2018-11-02T13:43:50.147Z,98905.70
2018-11-02T13:46:18.324Z,98902.31
2018-11-02T13:48:46.794Z,98900.19
2018-11-02T13:51:15.208Z,98889.89
2018-11-02T13:53:43.557Z,98896.61
2018-11-02T13:56:11.898Z,98894.77
2018-11-02T13:58:40.214Z,98892.67
2018-11-02T14:01:08.564Z,98901.52
2018-11-02T14:03:36.979Z,98905.06
2018-11-02T14:06:05.372Z,98908.20
2018-11-02T14:08:33.725Z,98902.72
2018-11-02T14:11:02.041Z,98902.08
2018-11-02T14:13:30.388Z,98906.76
2018-11-02T14:15:58.717Z,98902.95
2018-11-02T14:18:27.068Z,98902.50
2018-11-02T14:20:55.385Z,98901.38
2018-11-02T14:23:23.828Z,98898.07
2018-11-02T14:25:52.389Z,98903.69
2018-11-02T14:28:20.740Z,98904.84
2018-11-02T14:30:49.172Z,98907.23
2018-11-02T14:33:17.481Z,98896.00
2018-11-02T14:35:45.803Z,98895.05
2018-11-02T14:38:14.137Z,98897.98
2018-11-02T14:40:42.498Z,98899.77
2018-11-02T14:43:10.858Z,98911.22
2018-11-02T14:45:39.225Z,98903.03
2018-11-02T14:48:07.580Z,98908.17
2018-11-02T14:50:35.885Z,98910.70
2018-11-02T14:53:04.848Z,98920.19
2018-11-02T14:55:33.216Z,98921.05
2018-11-02T14:58:01.594Z,98928.44
2018-11-02T15:00:29.935Z,98930.98
2018-11-02T15:02:58.308Z,98933.97
2018-11-02T15:05:26.649Z,98933.08
2018-11-02T15:07:54.969Z,98934.36
2018-11-02T15:10:24.032Z,98931.36
2018-11-02T15:12:52.455Z,98931.75
2018-11-02T15:15:20.819Z,98931.10
2018-11-02T15:17:49.168Z,98929.95
2018-11-02T15:20:17.497Z,98925.50
2018-11-02T15:22:45.818Z,98943.12
2018-11-02T15:25:14.204Z,98940.44
2018-11-02T15:27:42.559Z,98947.61
2018-11-02T15:30:12.706Z,98959.61
2018-11-02T15:32:41.587Z,98975.75
2018-11-02T15:35:10.666Z,98982.72
2018-11-02T15:37:38.996Z,98976.44
2018-11-02T15:40:09.822Z,98978.56
2018-11-02T15:42:38.175Z,98982.45
2018-11-02T15:45:08.880Z,98996.05
2018-11-02T15:47:37.304Z,98993.34
2018-11-02T15:50:06.565Z,98991.75
2018-11-02T15:52:35.053Z,98987.57
2018-11-02T15:55:03.352Z,98985.59
2018-11-02T15:57:31.801Z,98991.66
2018-11-02T16:00:00.132Z,99008.91
2018-11-02T16:02:28.478Z,99008.61
2018-11-02T16:04:56.827Z,99004.52
2018-11-02T16:07:25.189Z,99003.77
2018-11-02T16:09:53.502Z,99008.80
2018-11-02T16:12:21.819Z,99015.53
2018-11-02T16:14:50.188Z,99017.52
2018-11-02T16:17:18.498Z,99021.70
2018-11-02T16:19:46.865Z,99014.11
2018-11-02T16:22:15.140Z,99018.55
2018-11-02T16:24:43.464Z,99027.42
2018-11-02T16:27:11.789Z,99035.37
2018-11-02T16:29:40.843Z,99040.97
2018-11-02T16:32:09.274Z,99046.23
2018-11-02T16:34:37.557Z,99047.68
2018-11-02T16:37:06.118Z,99051.55
2018-11-02T16:39:34.485Z,99056.45
2018-11-02T16:42:02.843Z,99056.11
2018-11-02T16:44:31.212Z,99051.18
2018-11-02T16:46:59.534Z,99056.91
2018-11-02T16:49:27.897Z,99069.22
2018-11-02T16:51:56.473Z,99076.95
2018-11-02T16:54:24.927Z,99086.72
2018-11-02T16:56:53.237Z,99091.00
2018-11-02T16:59:21.636Z,99097.20
2018-11-02T17:01:49.981Z,99104.79
2018-11-02T17:04:18.288Z,99096.00
2018-11-02T17:06:46.618Z,99104.58
2018-11-02T17:09:15.088Z,99109.66
2018-11-02T17:11:43.549Z,99110.52
2018-11-02T17:14:11.799Z,99110.85
2018-11-02T17:16:40.139Z,99126.69
2018-11-02T17:19:08.494Z,99128.48
2018-11-02T17:21:36.883Z,99130.50
2018-11-02T17:24:05.741Z,99135.58
2018-11-02T17:26:34.059Z,99128.34
2018-11-02T17:29:02.386Z,99127.62
2018-11-02T17:31:30.717Z,99129.77
2018-11-02T17:33:59.014Z,99126.30
2018-11-02T17:36:27.404Z,99129.97
2018-11-02T17:38:55.677Z,99128.58
2018-11-02T17:41:23.988Z,99135.31
2018-11-02T17:43:53.019Z,99141.33
2018-11-02T17:46:21.496Z,99147.91
2018-11-02T17:48:49.863Z,99139.20
2018-11-02T17:51:18.201Z,99140.08
2018-11-02T17:53:46.555Z,99141.17
2018-11-02T17:56:14.966Z,99136.44
2018-11-02T17:58:43.326Z,99141.44
2018-11-02T18:01:11.651Z,99137.66
2018-11-02T18:03:39.952Z,99147.20
2018-11-02T18:06:08.340Z,99153.73
2018-11-02T18:08:36.926Z,99157.67
2018-11-02T18:11:05.481Z,99161.48
2018-11-02T18:13:33.806Z,99163.42
2018-11-02T18:16:02.150Z,99168.97
2018-11-02T18:18:30.619Z,99172.48
2018-11-02T18:20:58.957Z,99174.78
2018-11-02T18:23:27.308Z,99175.95
2018-11-02T18:25:55.584Z,99180.53
2018-11-02T18:28:23.931Z,99178.05
2018-11-02T18:30:52.248Z,99179.08
2018-11-02T18:33:20.549Z,99187.27
2018-11-02T18:35:48.959Z,99182.03
2018-11-02T18:38:17.281Z,99188.04
2018-11-02T18:40:45.619Z,99193.67
2018-11-02T18:43:14.019Z,99186.64
2018-11-02T18:45:42.364Z,99189.71
2018-11-02T18:48:10.933Z,99191.28
2018-11-02T18:50:39.175Z,99192.91
2018-11-02T18:53:07.449Z,99192.56
2018-11-02T18:55:35.753Z,99190.92
2018-11-02T18:58:04.144Z,99196.94
2018-11-02T19:00:32.465Z,99194.51
2018-11-02T19:03:00.820Z,99199.70
2018-11-02T19:05:29.163Z,99198.02
2018-11-02T19:07:57.454Z,99201.37
2018-11-02T19:10:25.801Z,99203.57
2018-11-02T19:12:54.212Z,99206.34
2018-11-02T19:15:22.537Z,99203.41
2018-11-02T19:17:50.890Z,99201.37
2018-11-02T19:20:19.336Z,99205.55
2018-11-02T19:22:47.604Z,99199.94
2018-11-02T19:25:16.664Z,99195.63
2018-11-02T19:27:45.555Z,99193.06
2018-11-02T19:30:14.759Z,99195.59
2018-11-02T19:32:43.235Z,99198.78
2018-11-02T19:35:12.786Z,99198.06
2018-11-02T19:37:41.006Z,99203.38
2018-11-02T19:40:11.608Z,99211.94
2018-11-02T19:42:39.937Z,99215.69
2018-11-02T19:45:09.110Z,99222.77
2018-11-02T19:47:42.816Z,99218.66
2018-11-02T19:50:13.142Z,99217.33
2018-11-02T19:52:41.700Z,99217.79
2018-11-02T19:55:11.224Z,99219.30
2018-11-02T19:57:39.841Z,99228.63
2018-11-02T20:00:11.110Z,99234.48
2018-11-02T20:02:39.985Z,99236.17
2018-11-02T20:05:10.037Z,99245.73
2018-11-02T20:07:38.877Z,99247.13
2018-11-02T20:10:08.075Z,99246.59
2018-11-02T20:12:36.374Z,99251.71
2018-11-02T20:15:12.404Z,99260.08
2018-11-02T20:17:41.032Z,99253.83
2018-11-02T20:20:11.196Z,99251.89
2018-11-02T20:22:39.605Z,99248.47
2018-11-02T20:25:09.552Z,99255.80
2018-11-02T20:27:37.945Z,99250.81
2018-11-02T20:30:08.297Z,99259.36
2018-11-02T20:32:37.278Z,99257.28
2018-11-02T20:35:06.276Z,99254.23
2018-11-02T20:37:34.614Z,99260.68
2018-11-02T20:40:02.950Z,99260.27
2018-11-02T20:42:31.285Z,99262.52
2018-11-02T20:44:59.646Z,99259.51
2018-11-02T20:47:31.194Z,99260.20
2018-11-02T20:49:59.730Z,99250.62
2018-11-02T20:52:28.550Z,99256.00
2018-11-02T20:54:56.865Z,99258.97
2018-11-02T20:57:25.221Z,99261.69
2018-11-02T20:59:53.554Z,99258.12
2018-11-02T21:02:21.908Z,99276.68
2018-11-02T21:04:50.283Z,99274.28
2018-11-02T21:07:18.794Z,99270.80
2018-11-02T21:09:47.181Z,99274.79
2018-11-02T21:12:15.389Z,99272.77
2018-11-02T21:14:43.753Z,99282.13
2018-11-02T21:17:12.159Z,99288.27
2018-11-02T21:19:40.467Z,99287.20
2018-11-02T21:22:11.048Z,99287.66
2018-11-02T21:24:39.277Z,99291.13
2018-11-02T21:27:08.061Z,99290.39
2018-11-02T21:29:36.402Z,99291.70
2018-11-02T21:32:04.756Z,99297.41
2018-11-02T21:34:33.069Z,99293.77
2018-11-02T21:37:01.648Z,99305.70
2018-11-02T21:39:30.076Z,99307.39
2018-11-02T21:41:58.406Z,99309.92
2018-11-02T21:44:26.738Z,99306.74
2018-11-02T21:46:55.324Z,99308.66
2018-11-02T21:49:23.678Z,99314.41
2018-11-02T21:51:52.018Z,99317.25
2018-11-02T21:54:20.473Z,99312.56
2018-11-02T21:56:48.906Z,99317.05
2018-11-02T21:59:17.292Z,99314.14
2018-11-02T22:01:45.628Z,99318.48
2018-11-02T22:04:13.970Z,99318.28
2018-11-02T22:06:42.311Z,99317.70
2018-11-02T22:09:11.204Z,99319.15
2018-11-02T22:11:40.114Z,99318.47
2018-11-02T22:14:08.737Z,99321.14
2018-11-02T22:16:37.121Z,99323.61
2018-11-02T22:19:05.704Z,99327.61
2018-11-02T22:21:33.955Z,99324.19
2018-11-02T22:24:02.314Z,99321.53
2018-11-02T22:26:30.815Z,99319.09
2018-11-02T22:28:59.219Z,99322.91
2018-11-02T22:31:27.530Z,99327.81
2018-11-02T22:33:55.987Z,99331.70
2018-11-02T22:36:24.293Z,99330.63
2018-11-02T22:38:52.743Z,99334.31
2018-11-02T22:41:21.039Z,99326.92
2018-11-02T22:43:49.381Z,99334.41
2018-11-02T22:46:17.743Z,99329.19
2018-11-02T22:48:46.188Z,99343.16
2018-11-02T22:51:14.540Z,99338.60
2018-11-02T22:53:42.904Z,99339.92
2018-11-02T22:56:11.290Z,99343.93
2018-11-02T22:58:39.645Z,99340.00
2018-11-02T23:01:13.412Z,99337.73
2018-11-02T23:03:41.990Z,99350.30
2018-11-02T23:06:10.341Z,99348.07
2018-11-02T23:08:38.685Z,99348.84
2018-11-02T23:11:07.013Z,99341.06
2018-11-02T23:13:35.356Z,99350.77
2018-11-02T23:16:03.732Z,99349.20
2018-11-02T23:18:32.119Z,99360.56
2018-11-02T23:21:00.426Z,99357.34
2018-11-02T23:23:29.497Z,99347.48
2018-11-02T23:25:57.826Z,99334.48
2018-11-02T23:28:26.373Z,99317.57
2018-11-02T23:30:54.750Z,99319.52
2018-11-02T23:33:23.160Z,99322.94
2018-11-02T23:35:51.528Z,99317.45
2018-11-02T23:38:19.924Z,99318.81
2018-11-02T23:40:48.340Z,99324.38
2018-11-02T23:43:16.601Z,99327.35
2018-11-02T23:45:44.988Z,99330.24
2018-11-02T23:48:17.963Z,99331.77
2018-11-02T23:50:47.560Z,99342.73
2018-11-02T23:53:15.874Z,99342.16
2018-11-02T23:55:44.521Z,99336.59
2018-11-02T23:58:12.913Z,99339.56
